Time;durP1;ratioP1;P1;durP2;ratioP2;P2;SDS_P1;SDS_P2;PMS_P1;PMS_P2;Temp;Humidity;BMP_temperature;BMP_pressure;BME280_temperature;BME280_humidity;BME280_pressure;Samples;Min_cycle;Max_cycle;Signal;HPM_P1;HPM_P2
2022/08/16 00:00:49;;;;;;;0.50;0.50;;;21.60;99.90;;;;;;4885882;29;20052;-89
2022/08/16 00:03:18;;;;;;;0.50;0.50;;;21.60;99.90;;;;;;4900909;29;20048;-89
2022/08/16 00:05:44;;;;;;;0.65;0.63;;;21.60;99.90;;;;;;4901644;29;20054;-89
2022/08/16 00:08:10;;;;;;;1.30;0.50;;;21.50;99.90;;;;;;4901116;29;20130;-89
2022/08/16 00:10:36;;;;;;;0.88;0.52;;;21.50;99.90;;;;;;4885937;29;20398;-89
2022/08/16 00:13:05;;;;;;;0.90;0.75;;;21.50;99.90;;;;;;4900417;29;20048;-90
2022/08/16 00:15:36;;;;;;;0.57;0.52;;;21.40;99.90;;;;;;4898953;29;20498;-89
2022/08/16 00:18:03;;;;;;;1.08;0.60;;;21.40;99.90;;;;;;4901061;29;20044;-91
2022/08/16 00:20:29;;;;;;;0.35;0.35;;;21.40;99.90;;;;;;4901486;29;20091;-89
2022/08/16 00:22:55;;;;;;;1.15;1.05;;;21.40;99.90;;;;;;4901199;29;20064;-89
2022/08/16 00:25:23;;;;;;;0.50;0.50;;;21.40;99.90;;;;;;4900732;29;20058;-89
2022/08/16 00:27:49;;;;;;;1.10;0.93;;;21.40;99.90;;;;;;4883651;29;20503;-89
2022/08/16 00:30:17;;;;;;;0.65;0.65;;;21.40;99.90;;;;;;4884854;29;20091;-89
2022/08/16 00:32:46;;;;;;;0.50;0.50;;;21.40;99.90;;;;;;4901289;29;20185;-88
2022/08/16 00:35:15;;;;;;;0.70;0.70;;;21.40;99.90;;;;;;4900599;29;20048;-89
2022/08/16 00:37:41;;;;;;;1.50;0.70;;;21.40;99.90;;;;;;4901045;29;20107;-89
2022/08/16 00:40:07;;;;;;;0.50;0.50;;;21.30;99.90;;;;;;4885129;29;20071;-89
2022/08/16 00:42:34;;;;;;;0.98;0.60;;;21.30;99.90;;;;;;4885696;29;20448;-88
2022/08/16 00:45:01;;;;;;;;;;;21.30;99.90;;;;;;4870102;29;20048;-89
2022/08/16 00:47:27;;;;;;;1.33;0.50;;;21.30;99.90;;;;;;4900445;29;20330;-89
2022/08/16 00:49:53;;;;;;;0.57;0.57;;;21.30;99.90;;;;;;4900793;29;20104;-89
2022/08/16 00:52:19;;;;;;;0.98;0.68;;;21.20;99.90;;;;;;4869301;29;20059;-89
2022/08/16 00:54:45;;;;;;;0.65;0.50;;;21.20;99.90;;;;;;4869228;29;20118;-88
2022/08/16 00:57:11;;;;;;;1.48;0.88;;;21.20;99.90;;;;;;4881833;29;20040;-90
2022/08/16 00:59:39;;;;;;;1.17;0.70;;;21.10;99.90;;;;;;4881744;29;20501;-89
2022/08/16 01:02:08;;;;;;;1.10;1.00;;;21.10;99.90;;;;;;4881814;29;20068;-88
2022/08/16 01:04:34;;;;;;;0.70;0.65;;;21.10;99.90;;;;;;4881491;29;20063;-89
2022/08/16 01:07:03;;;;;;;0.65;0.63;;;21.00;99.90;;;;;;4881615;29;20107;-89
2022/08/16 01:09:37;;;;;;;0.60;0.60;;;21.00;99.90;;;;;;4881263;29;20161;-88
2022/08/16 01:12:05;;;;;;;0.63;0.32;;;20.90;99.90;;;;;;4881511;29;20052;-89
2022/08/16 01:14:38;;;;;;;0.88;0.57;;;20.80;99.90;;;;;;4881354;29;20055;-88
2022/08/16 01:17:04;;;;;;;0.30;0.30;;;20.80;99.90;;;;;;4881350;29;20053;-89
2022/08/16 01:19:34;;;;;;;0.60;0.57;;;20.80;99.90;;;;;;4896487;29;20071;-88
2022/08/16 01:22:15;;;;;;;0.70;0.70;;;20.80;99.90;;;;;;4881583;29;20057;-88
2022/08/16 01:24:58;;;;;;;0.52;0.52;;;20.70;99.90;;;;;;4881565;29;20487;-88
2022/08/16 01:27:32;;;;;;;0.45;0.45;;;20.70;99.90;;;;;;4880391;29;20056;-89
2022/08/16 01:30:15;;;;;;;0.77;0.40;;;20.70;99.90;;;;;;4882071;29;20134;-89
2022/08/16 01:32:41;;;;;;;0.90;0.57;;;20.70;99.90;;;;;;4884369;29;20064;-89
2022/08/16 01:35:13;;;;;;;1.17;0.52;;;20.60;99.90;;;;;;4884522;29;20047;-88
2022/08/16 01:37:47;;;;;;;0.77;0.60;;;20.70;99.90;;;;;;4900034;29;20056;-89
2022/08/16 01:40:14;;;;;;;0.63;0.40;;;20.70;99.90;;;;;;4899521;29;20056;-90
2022/08/16 01:42:41;;;;;;;0.73;0.70;;;20.70;99.90;;;;;;4916543;29;20059;-88
2022/08/16 01:45:07;;;;;;;0.63;0.63;;;20.70;99.90;;;;;;4884000;29;20056;-88
2022/08/16 01:47:34;;;;;;;0.65;0.65;;;20.70;99.90;;;;;;4883883;29;20286;-89
2022/08/16 01:50:00;;;;;;;1.60;0.68;;;20.60;99.90;;;;;;4884208;29;20044;-89
2022/08/16 01:52:26;;;;;;;2.17;0.95;;;20.70;99.90;;;;;;4899479;29;20107;-88
2022/08/16 01:54:52;;;;;;;0.60;0.60;;;20.60;99.90;;;;;;4883890;29;20048;-89
2022/08/16 01:57:18;;;;;;;1.00;0.65;;;20.60;99.90;;;;;;4883772;29;20047;-88
2022/08/16 01:59:44;;;;;;;0.57;0.57;;;20.60;99.90;;;;;;4897682;29;20066;-88
2022/08/16 02:02:10;;;;;;;0.70;0.70;;;20.60;99.90;;;;;;4870888;29;20052;-88
2022/08/16 02:04:36;;;;;;;2.60;0.90;;;20.60;99.90;;;;;;4861847;29;20060;-89
2022/08/16 02:07:07;;;;;;;0.38;0.38;;;20.50;99.90;;;;;;4863160;29;20415;-89
2022/08/16 02:09:36;;;;;;;0.90;0.60;;;20.50;99.90;;;;;;4881379;29;20448;-89
2022/08/16 02:12:05;;;;;;;0.98;0.82;;;20.50;99.90;;;;;;4881317;29;20045;-89
2022/08/16 02:14:32;;;;;;;1.02;0.47;;;20.50;99.90;;;;;;4865615;29;20111;-89
2022/08/16 02:17:00;;;;;;;0.68;0.57;;;20.50;99.90;;;;;;4865955;29;20416;-89
2022/08/16 02:19:28;;;;;;;0.85;0.70;;;20.50;99.90;;;;;;4865874;29;20086;-89
2022/08/16 02:21:54;;;;;;;0.40;0.38;;;20.40;99.90;;;;;;4866067;29;20064;-88
2022/08/16 02:24:21;;;;;;;1.85;0.73;;;20.40;99.90;;;;;;4881266;29;20408;-89
2022/08/16 02:26:47;;;;;;;0.93;0.60;;;20.30;99.90;;;;;;4865944;29;20132;-89
2022/08/16 02:29:13;;;;;;;;;;;20.30;99.90;;;;;;4874635;29;20060;-89
2022/08/16 02:31:39;;;;;;;1.08;0.60;;;20.20;99.90;;;;;;4901868;29;20428;-89
2022/08/16 02:34:07;;;;;;;1.25;0.68;;;20.20;99.90;;;;;;4887635;29;20056;-89
2022/08/16 02:36:33;;;;;;;0.90;0.80;;;20.20;99.90;;;;;;4887028;29;20107;-89
2022/08/16 02:38:59;;;;;;;0.73;0.68;;;20.10;99.90;;;;;;4872003;29;20087;-88
2022/08/16 02:41:25;;;;;;;0.55;0.55;;;20.10;99.90;;;;;;4887168;29;20048;-89
2022/08/16 02:43:50;;;;;;;0.60;0.60;;;20.10;99.90;;;;;;4887330;29;20050;-89
2022/08/16 02:46:16;;;;;;;0.50;0.50;;;20.10;99.90;;;;;;4902895;29;20048;-89
2022/08/16 02:48:42;;;;;;;0.57;0.57;;;20.10;99.90;;;;;;4902542;29;20533;-89
2022/08/16 02:51:09;;;;;;;2.13;0.50;;;20.10;99.90;;;;;;4887460;29;20048;-89
2022/08/16 02:53:37;;;;;;;1.70;0.70;;;20.10;99.90;;;;;;4886916;29;20058;-88
2022/08/16 02:56:04;;;;;;;1.02;0.68;;;20.00;99.90;;;;;;4871663;29;20052;-89
2022/08/16 02:58:31;;;;;;;0.70;0.50;;;20.00;99.90;;;;;;4885806;29;20044;-89
2022/08/16 03:00:57;;;;;;;1.45;0.80;;;20.00;99.90;;;;;;4886909;29;20083;-88
2022/08/16 03:03:25;;;;;;;0.70;0.70;;;20.00;99.90;;;;;;4886731;29;20130;-90
2022/08/16 03:05:51;;;;;;;1.10;0.50;;;19.90;99.90;;;;;;4887016;29;20080;-89
2022/08/16 03:08:17;;;;;;;0.75;0.75;;;19.90;99.90;;;;;;4902811;29;20122;-88
2022/08/16 03:10:44;;;;;;;0.95;0.50;;;19.90;99.90;;;;;;4902041;29;20048;-89
2022/08/16 03:13:09;;;;;;;;;;;19.90;99.90;;;;;;4887635;29;20047;-89
2022/08/16 03:15:35;;;;;;;0.47;0.47;;;19.90;99.90;;;;;;4902052;29;20297;-89
2022/08/16 03:18:01;;;;;;;0.60;0.60;;;19.90;99.90;;;;;;4886645;29;20054;-89
2022/08/16 03:20:26;;;;;;;0.88;0.50;;;19.90;99.90;;;;;;4902031;29;20124;-89
2022/08/16 03:22:52;;;;;;;0.70;0.60;;;19.80;99.90;;;;;;4886700;29;20138;-89
2022/08/16 03:25:18;;;;;;;0.98;0.77;;;19.90;99.90;;;;;;4886540;29;20158;-89
2022/08/16 03:27:44;;;;;;;0.75;0.57;;;19.90;99.90;;;;;;4886140;29;20052;-89
2022/08/16 03:30:21;;;;;;;1.50;1.00;;;19.90;99.90;;;;;;4917722;29;20060;-89
2022/08/16 03:32:48;;;;;;;2.03;0.80;;;19.90;99.90;;;;;;4901213;29;20059;-89
2022/08/16 03:35:16;;;;;;;0.85;0.70;;;19.80;99.90;;;;;;4871079;29;20058;-89
2022/08/16 03:37:44;;;;;;;1.65;0.80;;;19.80;99.90;;;;;;4901625;29;20411;-90
2022/08/16 03:40:12;;;;;;;0.95;0.60;;;19.70;99.90;;;;;;4901879;29;20048;-89
2022/08/16 03:42:37;;;;;;;1.60;0.70;;;19.70;99.90;;;;;;4901446;29;20048;-88
2022/08/16 03:45:03;;;;;;;0.25;0.25;;;19.70;99.90;;;;;;4902039;29;20044;-89
2022/08/16 03:47:29;;;;;;;1.58;0.70;;;19.60;99.90;;;;;;4870611;29;20051;-90
2022/08/16 03:49:57;;;;;;;0.77;0.60;;;19.60;99.90;;;;;;4886510;29;20044;-89
2022/08/16 03:52:23;;;;;;;0.65;0.50;;;19.60;99.90;;;;;;4886095;29;20048;-89
2022/08/16 03:54:50;;;;;;;;;;;19.60;99.90;;;;;;4870565;29;20056;-89
2022/08/16 03:57:15;;;;;;;1.58;0.88;;;19.60;99.90;;;;;;4885933;29;19934;-89
2022/08/16 03:59:41;;;;;;;0.77;0.50;;;19.50;99.90;;;;;;4869110;29;20048;-89
2022/08/16 04:02:07;;;;;;;1.48;0.93;;;19.50;99.90;;;;;;4886136;29;20052;-89
2022/08/16 04:04:35;;;;;;;0.98;0.32;;;19.50;99.90;;;;;;4901007;29;20513;-89
2022/08/16 04:07:05;;;;;;;1.05;0.75;;;19.40;99.90;;;;;;4886195;29;20052;-89
2022/08/16 04:09:32;;;;;;;1.33;0.70;;;19.40;99.90;;;;;;4885787;29;20122;-89
2022/08/16 04:11:58;;;;;;;0.95;0.57;;;19.40;99.90;;;;;;4886343;29;20078;-89
2022/08/16 04:14:25;;;;;;;0.63;0.57;;;19.30;99.90;;;;;;4886079;29;20054;-89
2022/08/16 04:16:51;;;;;;;0.70;0.40;;;19.30;99.90;;;;;;4884984;29;20050;-89
2022/08/16 04:19:16;;;;;;;0.43;0.43;;;19.20;99.90;;;;;;4885761;29;20056;-89
2022/08/16 04:21:42;;;;;;;1.10;0.73;;;19.10;99.90;;;;;;4885144;29;20139;-89
2022/08/16 04:24:08;;;;;;;0.75;0.70;;;19.10;99.90;;;;;;4885493;29;20063;-89
2022/08/16 04:26:34;;;;;;;1.75;0.85;;;19.00;99.90;;;;;;4885283;29;20044;-90
2022/08/16 04:29:00;;;;;;;0.40;0.40;;;19.00;99.90;;;;;;4885435;29;20052;-89
2022/08/16 04:31:26;;;;;;;0.82;0.50;;;19.00;99.90;;;;;;4883055;29;20066;-89
2022/08/16 04:33:52;;;;;;;0.65;0.65;;;19.00;99.90;;;;;;4900608;29;20139;-89
2022/08/16 04:36:18;;;;;;;1.02;0.70;;;19.00;99.90;;;;;;4885152;29;20048;-89
2022/08/16 04:38:44;;;;;;;;;;;19.00;99.90;;;;;;4885223;29;20087;-89
2022/08/16 04:41:10;;;;;;;1.13;0.65;;;18.90;99.90;;;;;;4901106;29;19977;-89
2022/08/16 04:43:37;;;;;;;0.95;0.60;;;18.90;99.90;;;;;;4869266;29;20143;-91
2022/08/16 04:46:04;;;;;;;1.25;0.47;;;18.90;99.90;;;;;;4917472;29;20094;-89
2022/08/16 04:48:30;;;;;;;1.05;0.70;;;18.80;99.90;;;;;;4901019;29;20190;-88
2022/08/16 04:50:55;;;;;;;0.75;0.50;;;18.80;99.90;;;;;;4916946;29;20375;-89
2022/08/16 04:53:21;;;;;;;1.67;0.50;;;18.90;99.90;;;;;;4884698;29;20044;-89
2022/08/16 04:55:47;;;;;;;1.67;1.13;;;18.90;99.90;;;;;;4884700;29;20052;-89
2022/08/16 04:58:13;;;;;;;0.60;0.60;;;18.90;99.90;;;;;;4869578;29;20388;-89
2022/08/16 05:00:39;;;;;;;0.75;0.68;;;19.00;99.90;;;;;;4883570;29;20047;-89
2022/08/16 05:03:07;;;;;;;1.88;0.70;;;19.00;99.90;;;;;;4900502;29;20131;-89
2022/08/16 05:05:35;;;;;;;0.95;0.60;;;18.90;99.90;;;;;;4884821;29;20059;-89
2022/08/16 05:08:01;;;;;;;1.73;0.73;;;19.00;99.90;;;;;;4884587;29;20052;-89
2022/08/16 05:10:28;;;;;;;1.48;0.68;;;19.00;99.90;;;;;;4884913;29;20091;-89
2022/08/16 05:12:54;;;;;;;0.90;0.55;;;19.00;99.90;;;;;;4869047;29;20052;-89
2022/08/16 05:15:20;;;;;;;1.30;0.80;;;19.00;99.90;;;;;;4884562;29;20056;-89
2022/08/16 05:17:46;;;;;;;1.35;0.40;;;19.00;99.90;;;;;;4868884;29;20538;-89
2022/08/16 05:20:12;;;;;;;1.90;0.98;;;19.00;99.90;;;;;;4900077;29;20059;-88
2022/08/16 05:22:38;;;;;;;0.77;0.60;;;19.00;99.90;;;;;;4884787;29;20051;-89
2022/08/16 05:25:07;;;;;;;0.60;0.50;;;19.00;99.90;;;;;;4884229;29;20052;-89
2022/08/16 05:27:32;;;;;;;0.38;0.38;;;19.00;99.90;;;;;;4900197;29;20062;-89
2022/08/16 05:29:58;;;;;;;0.68;0.50;;;19.10;99.90;;;;;;4898761;29;20135;-89
2022/08/16 05:32:24;;;;;;;0.63;0.50;;;19.10;99.90;;;;;;4900020;29;20056;-89
2022/08/16 05:34:50;;;;;;;1.55;0.63;;;19.10;99.90;;;;;;4868539;29;20411;-89
2022/08/16 05:37:15;;;;;;;1.52;0.80;;;19.10;99.90;;;;;;4884096;29;20100;-89
2022/08/16 05:39:41;;;;;;;1.17;0.50;;;19.20;99.90;;;;;;4869340;29;20052;-88
2022/08/16 05:42:07;;;;;;;1.02;0.52;;;19.20;99.90;;;;;;4900125;29;20044;-89
2022/08/16 05:44:33;;;;;;;1.25;0.73;;;19.30;99.90;;;;;;4900001;29;20055;-90
2022/08/16 05:47:00;;;;;;;1.10;0.63;;;19.40;99.90;;;;;;4868630;29;20087;-89
2022/08/16 05:49:27;;;;;;;1.17;0.75;;;19.50;99.90;;;;;;4899624;29;20098;-89
2022/08/16 05:51:54;;;;;;;2.00;0.57;;;19.60;99.90;;;;;;4883908;29;20138;-89
2022/08/16 05:54:21;;;;;;;1.73;1.10;;;19.70;99.90;;;;;;4884531;29;20059;-89
2022/08/16 05:56:46;;;;;;;0.57;0.43;;;19.90;99.90;;;;;;4883624;29;20060;-89
2022/08/16 05:59:14;;;;;;;1.73;0.70;;;20.00;99.90;;;;;;4883994;29;20043;-91
2022/08/16 06:01:43;;;;;;;0.93;0.45;;;20.10;99.90;;;;;;4899001;29;20415;-89
2022/08/16 06:04:11;;;;;;;0.50;0.50;;;20.30;99.90;;;;;;4883544;29;20459;-89
2022/08/16 06:06:37;;;;;;;0.82;0.65;;;20.40;99.90;;;;;;4884100;29;20100;-89
2022/08/16 06:09:03;;;;;;;1.05;0.43;;;20.50;99.90;;;;;;4883740;29;20048;-89
2022/08/16 06:11:29;;;;;;;1.10;0.85;;;20.60;99.90;;;;;;4868753;29;20060;-89
2022/08/16 06:13:55;;;;;;;1.73;0.70;;;20.80;99.90;;;;;;4899225;29;20048;-90
2022/08/16 06:16:21;;;;;;;1.02;0.65;;;20.90;99.90;;;;;;4883843;29;20104;-89
2022/08/16 06:18:47;;;;;;;1.45;0.63;;;21.00;99.90;;;;;;4899632;29;20055;-91
2022/08/16 06:21:13;;;;;;;1.08;0.50;;;21.10;99.90;;;;;;4883791;29;20056;-89
2022/08/16 06:23:40;;;;;;;0.98;0.50;;;21.10;99.90;;;;;;4899412;29;20040;-89
2022/08/16 06:26:06;;;;;;;0.40;0.40;;;21.10;99.90;;;;;;4898992;29;20411;-89
2022/08/16 06:28:33;;;;;;;0.75;0.60;;;21.10;99.90;;;;;;4899387;29;20051;-89
2022/08/16 06:30:59;;;;;;;1.02;0.52;;;21.00;99.90;;;;;;4866447;29;20056;-91
2022/08/16 06:33:25;;;;;;;;;;;20.90;99.90;;;;;;4899644;29;20511;-90
2022/08/16 06:35:52;;;;;;;0.45;0.45;;;20.90;99.90;;;;;;4883506;29;19930;-91
2022/08/16 06:38:18;;;;;;;0.60;0.50;;;20.80;99.90;;;;;;4899104;29;20677;-91
2022/08/16 06:40:44;;;;;;;1.13;0.60;;;20.80;99.90;;;;;;4899442;29;20044;-91
2022/08/16 06:43:10;;;;;;;1.65;0.80;;;20.70;99.90;;;;;;4867827;29;20473;-91
2022/08/16 06:45:41;;;;;;;0.90;0.43;;;20.70;99.90;;;;;;4883633;29;20122;-91
2022/08/16 06:48:06;;;;;;;1.13;0.88;;;20.60;99.90;;;;;;4883402;29;20052;-90
2022/08/16 06:50:34;;;;;;;1.30;0.70;;;20.70;99.90;;;;;;4883837;29;20059;-91
2022/08/16 06:53:00;;;;;;;0.60;0.60;;;20.80;99.90;;;;;;4868755;29;20092;-91
2022/08/16 06:55:27;;;;;;;0.63;0.45;;;20.90;99.90;;;;;;4887087;29;20059;-91
2022/08/16 06:57:53;;;;;;;;;;;21.10;99.90;;;;;;4887442;29;20052;-92
2022/08/16 07:00:19;;;;;;;0.93;0.70;;;21.30;99.90;;;;;;4901300;29;19927;-90
2022/08/16 07:02:45;;;;;;;0.43;0.30;;;21.50;99.90;;;;;;4870970;29;20120;-91
2022/08/16 07:05:14;;;;;;;0.47;0.47;;;21.70;99.90;;;;;;4871083;29;20052;-91
2022/08/16 07:07:41;;;;;;;0.95;0.70;;;21.70;99.90;;;;;;4887125;29;20075;-91
2022/08/16 07:10:09;;;;;;;2.00;0.77;;;21.80;99.90;;;;;;4902383;29;20084;-91
2022/08/16 07:12:35;;;;;;;1.30;0.88;;;21.80;99.90;;;;;;4902444;29;20059;-91
2022/08/16 07:15:02;;;;;;;0.85;0.50;;;22.00;99.90;;;;;;4886281;29;20127;-90
2022/08/16 07:17:28;;;;;;;0.63;0.47;;;22.10;99.90;;;;;;4886497;29;20522;-91
2022/08/16 07:19:55;;;;;;;0.55;0.55;;;22.30;99.90;;;;;;4887027;29;20060;-91
2022/08/16 07:22:21;;;;;;;0.80;0.80;;;22.40;99.90;;;;;;4902218;29;20088;-92
2022/08/16 07:24:47;;;;;;;;;;;22.60;99.90;;;;;;4871689;29;20095;-91
2022/08/16 07:27:13;;;;;;;1.00;0.95;;;22.60;99.90;;;;;;4901554;29;19927;-92
2022/08/16 07:29:39;;;;;;;0.73;0.73;;;22.70;99.90;;;;;;4900782;29;20056;-91
2022/08/16 07:32:05;;;;;;;0.75;0.75;;;22.80;99.90;;;;;;4901845;29;20196;-91
2022/08/16 07:34:32;;;;;;;0.50;0.50;;;22.90;99.90;;;;;;4885932;29;20044;-91
2022/08/16 07:37:01;;;;;;;0.82;0.80;;;22.90;99.90;;;;;;4900390;29;20044;-92
2022/08/16 07:39:28;;;;;;;0.65;0.60;;;23.10;99.90;;;;;;4883318;29;20054;-91
2022/08/16 07:41:54;;;;;;;0.98;0.68;;;23.20;99.90;;;;;;4898817;29;20533;-91
2022/08/16 07:44:20;;;;;;;0.95;0.88;;;23.30;99.90;;;;;;4882935;29;20048;-92
2022/08/16 07:46:46;;;;;;;1.55;1.17;;;23.40;99.90;;;;;;4883347;29;20139;-91
2022/08/16 07:49:12;;;;;;;;;;;23.50;99.90;;;;;;4883412;29;20055;-92
2022/08/16 07:51:37;;;;;;;0.82;0.70;;;23.70;99.90;;;;;;4883307;29;19930;-91
2022/08/16 07:54:06;;;;;;;1.02;0.90;;;23.80;99.90;;;;;;4898367;29;20490;-92
2022/08/16 07:56:32;;;;;;;0.73;0.73;;;23.80;99.90;;;;;;4898500;29;20131;-91
2022/08/16 07:58:58;;;;;;;0.80;0.80;;;23.80;99.90;;;;;;4883216;29;20095;-93
2022/08/16 08:01:24;;;;;;;0.93;0.70;;;23.90;99.90;;;;;;4892931;29;20051;-91
2022/08/16 08:03:51;;;;;;;1.23;0.68;;;24.00;99.90;;;;;;4901641;29;20446;-90
2022/08/16 08:06:19;;;;;;;1.05;0.95;;;24.00;99.90;;;;;;4885177;29;20055;-91
2022/08/16 08:08:45;;;;;;;0.85;0.73;;;24.10;99.90;;;;;;4901887;29;20179;-92
2022/08/16 08:11:12;;;;;;;1.02;0.52;;;24.20;99.90;;;;;;4885665;29;20132;-92
2022/08/16 08:13:37;;;;;;;;;;;24.20;99.90;;;;;;4886546;29;20058;-92
2022/08/16 08:16:04;;;;;;;0.80;0.77;;;24.30;99.90;;;;;;4885831;29;20392;-91
2022/08/16 08:18:29;;;;;;;0.75;0.75;;;24.40;99.90;;;;;;4885963;29;20115;-92
2022/08/16 08:20:56;;;;;;;0.73;0.73;;;24.50;99.90;;;;;;4885933;29;20048;-91
2022/08/16 08:23:22;;;;;;;1.60;1.00;;;24.50;99.90;;;;;;4885294;29;20909;-91
2022/08/16 08:25:48;;;;;;;;;;;24.60;99.90;;;;;;4901628;29;20143;-92
2022/08/16 08:28:15;;;;;;;1.40;1.08;;;24.70;99.90;;;;;;4870135;29;19974;-92
2022/08/16 08:30:41;;;;;;;1.13;0.70;;;24.70;99.90;;;;;;4881531;29;20507;-92
2022/08/16 08:33:08;;;;;;;0.88;0.68;;;24.70;99.90;;;;;;4897473;29;20179;-93
2022/08/16 08:35:34;;;;;;;0.88;0.68;;;24.70;99.90;;;;;;4882623;29;20057;-92
2022/08/16 08:38:01;;;;;;;0.82;0.80;;;24.80;99.90;;;;;;4882743;29;20051;-94
2022/08/16 08:40:28;;;;;;;1.13;0.70;;;24.80;99.90;;;;;;4897641;29;20044;-91
2022/08/16 08:42:55;;;;;;;0.57;0.47;;;25.00;99.90;;;;;;4898114;29;20056;-92
2022/08/16 08:45:21;;;;;;;0.73;0.60;;;25.10;99.90;;;;;;4897602;29;20052;-92
2022/08/16 08:47:47;;;;;;;1.20;1.08;;;25.20;99.90;;;;;;4866831;29;20112;-91
2022/08/16 08:50:15;;;;;;;0.70;0.50;;;25.30;99.90;;;;;;4881762;29;20499;-93
2022/08/16 08:52:41;;;;;;;1.08;0.82;;;25.40;99.90;;;;;;4897434;29;20052;-92
2022/08/16 08:55:11;;;;;;;;;;;25.40;99.90;;;;;;4897805;29;20095;-92
2022/08/16 08:57:46;;;;;;;1.20;1.10;;;25.40;98.60;;;;;;4897066;29;19923;-92
2022/08/16 09:00:14;;;;;;;0.98;0.85;;;25.40;99.50;;;;;;4897213;29;20048;-91
2022/08/16 09:02:44;;;;;;;1.50;0.98;;;25.50;99.70;;;;;;4895182;29;20044;-92
2022/08/16 09:05:12;;;;;;;0.73;0.70;;;25.60;99.00;;;;;;4896427;29;20406;-91
2022/08/16 09:07:37;;;;;;;1.20;0.85;;;25.60;99.90;;;;;;4897471;29;20490;-92
2022/08/16 09:10:07;;;;;;;0.85;0.85;;;25.60;98.90;;;;;;4882132;29;20107;-92
2022/08/16 09:12:34;;;;;;;1.05;0.55;;;25.60;98.90;;;;;;4881429;29;20080;-91
2022/08/16 09:15:00;;;;;;;0.95;0.60;;;25.60;97.90;;;;;;4881711;29;20089;-91
2022/08/16 09:17:26;;;;;;;0.93;0.60;;;25.60;98.20;;;;;;4896481;29;20040;-92
2022/08/16 09:19:54;;;;;;;0.90;0.70;;;25.60;98.80;;;;;;4881556;29;20053;-91
2022/08/16 09:22:24;;;;;;;0.73;0.73;;;25.60;98.50;;;;;;4881254;29;20048;-92
2022/08/16 09:24:50;;;;;;;0.90;0.75;;;25.60;96.70;;;;;;4881513;29;20087;-92
2022/08/16 09:27:16;;;;;;;;;;;25.60;98.10;;;;;;4896748;29;20040;-92
2022/08/16 09:29:43;;;;;;;1.20;0.88;;;25.70;96.00;;;;;;4881159;29;19930;-93
2022/08/16 09:32:09;;;;;;;1.17;0.60;;;25.70;95.70;;;;;;4864986;29;20056;-92
2022/08/16 09:34:35;;;;;;;1.02;0.70;;;25.80;97.00;;;;;;4880409;29;20056;-92
2022/08/16 09:37:01;;;;;;;0.60;0.60;;;25.80;97.10;;;;;;4865794;29;20431;-92
2022/08/16 09:39:27;;;;;;;;;;;25.80;96.70;;;;;;4881300;29;20118;-92
2022/08/16 09:41:55;;;;;;;0.73;0.60;;;25.80;94.70;;;;;;4881054;29;19923;-92
2022/08/16 09:44:27;;;;;;;0.77;0.77;;;25.80;96.80;;;;;;4865656;29;20088;-92
2022/08/16 09:46:54;;;;;;;0.68;0.68;;;25.90;96.70;;;;;;4881267;29;20080;-92
2022/08/16 09:49:21;;;;;;;0.65;0.50;;;25.90;96.00;;;;;;4880738;29;20416;-92
2022/08/16 09:51:52;;;;;;;0.80;0.80;;;25.90;95.80;;;;;;4866025;29;20104;-92
2022/08/16 09:54:18;;;;;;;0.55;0.55;;;25.90;96.50;;;;;;4896399;29;20044;-92
2022/08/16 09:56:45;;;;;;;0.60;0.60;;;26.00;96.50;;;;;;4880816;29;20041;-92
2022/08/16 09:59:13;;;;;;;0.70;0.70;;;26.00;96.40;;;;;;4880924;29;20060;-92
2022/08/16 10:01:41;;;;;;;0.40;0.40;;;26.20;96.00;;;;;;4880572;29;20476;-92
2022/08/16 10:04:07;;;;;;;0.75;0.60;;;26.30;96.10;;;;;;4879786;29;20053;-91
2022/08/16 10:06:34;;;;;;;0.45;0.45;;;26.30;95.90;;;;;;4894768;29;20475;-91
2022/08/16 10:09:03;;;;;;;0.93;0.70;;;26.40;95.80;;;;;;4896755;29;20098;-92
2022/08/16 10:14:12;;;;;;;0.47;0.40;;;26.50;95.40;;;;;;4881092;29;20059;-93
2022/08/16 10:16:38;;;;;;;;;;;26.50;95.00;;;;;;4850190;29;20041;-92
2022/08/16 10:19:04;;;;;;;1.27;0.40;;;26.50;92.80;;;;;;4896462;29;19931;-92
2022/08/16 10:21:30;;;;;;;;;;;26.60;94.00;;;;;;4896370;29;20048;-92
2022/08/16 10:23:56;;;;;;;0.32;0.32;;;26.70;92.20;;;;;;4896865;29;20018;-92
2022/08/16 10:26:23;;;;;;;;;;;26.80;94.40;;;;;;4880857;29;20159;-92
2022/08/16 10:28:50;;;;;;;0.88;0.70;;;26.90;92.20;;;;;;4913928;29;19986;-93
2022/08/16 10:31:17;;;;;;;0.50;0.50;;;26.90;94.60;;;;;;4900237;29;20131;-93
2022/08/16 10:33:43;;;;;;;0.93;0.40;;;27.00;93.70;;;;;;4883038;29;20514;-93
2022/08/16 10:36:11;;;;;;;0.70;0.70;;;27.10;94.50;;;;;;4900220;29;20135;-93
2022/08/16 10:38:39;;;;;;;0.38;0.30;;;27.10;92.50;;;;;;4884008;29;20056;-93
2022/08/16 10:41:06;;;;;;;0.50;0.50;;;27.10;92.60;;;;;;4884366;29;20048;-92
2022/08/16 10:43:32;;;;;;;0.98;0.70;;;27.10;93.10;;;;;;4884070;29;20506;-92
2022/08/16 10:45:58;;;;;;;0.55;0.55;;;27.20;92.90;;;;;;4884436;29;20455;-92
2022/08/16 10:48:24;;;;;;;;;;;27.20;93.40;;;;;;4868790;29;20147;-90
2022/08/16 10:50:50;;;;;;;0.50;0.50;;;27.30;90.40;;;;;;4884038;29;19930;-90
2022/08/16 10:53:16;;;;;;;;;;;27.40;93.10;;;;;;4884694;29;20104;-89
2022/08/16 10:55:42;;;;;;;0.45;0.45;;;27.40;90.50;;;;;;4899226;29;19935;-89
2022/08/16 10:58:11;;;;;;;0.85;0.57;;;27.50;92.60;;;;;;4884332;29;20052;-90
2022/08/16 11:00:39;;;;;;;0.40;0.35;;;27.50;92.70;;;;;;4883886;29;20052;-91
2022/08/16 11:03:06;;;;;;;0.60;0.47;;;27.50;92.30;;;;;;4898562;29;20503;-91
2022/08/16 11:05:34;;;;;;;0.60;0.55;;;27.50;92.20;;;;;;4898417;29;20044;-89
2022/08/16 11:08:00;;;;;;;0.63;0.63;;;27.50;92.20;;;;;;4868327;29;20045;-90
2022/08/16 11:10:30;;;;;;;0.30;0.30;;;27.60;92.40;;;;;;4868015;29;20045;-90
2022/08/16 11:12:56;;;;;;;0.40;0.40;;;27.70;92.20;;;;;;4883971;29;20048;-91
2022/08/16 11:15:22;;;;;;;0.90;0.65;;;27.80;92.20;;;;;;4883924;29;20116;-91
2022/08/16 11:17:50;;;;;;;0.55;0.55;;;27.90;91.20;;;;;;4883377;29;20063;-91
2022/08/16 11:20:16;;;;;;;0.30;0.30;;;27.90;91.30;;;;;;4883886;29;20422;-90
2022/08/16 11:22:46;;;;;;;0.50;0.50;;;28.00;91.50;;;;;;4883255;29;20048;-90
2022/08/16 11:25:15;;;;;;;0.65;0.40;;;28.00;88.20;;;;;;4883751;29;20055;-90
2022/08/16 11:27:41;;;;;;;0.35;0.35;;;28.10;90.60;;;;;;4898957;29;20087;-92
2022/08/16 11:30:10;;;;;;;0.47;0.40;;;28.10;90.30;;;;;;4883506;29;20108;-92
2022/08/16 11:32:36;;;;;;;0.35;0.30;;;28.20;86.80;;;;;;4882455;29;20566;-91
2022/08/16 11:35:08;;;;;;;0.45;0.40;;;28.30;90.20;;;;;;4891257;29;20407;-90
2022/08/16 11:37:34;;;;;;;0.40;0.40;;;28.30;90.30;;;;;;4882909;29;20041;-91
2022/08/16 11:40:02;;;;;;;0.45;0.40;;;28.40;88.90;;;;;;4898557;29;20049;-91
2022/08/16 11:42:28;;;;;;;0.73;0.60;;;28.40;88.60;;;;;;4883235;29;20543;-91
2022/08/16 11:44:53;;;;;;;0.63;0.55;;;28.50;89.60;;;;;;4868121;29;20200;-91
2022/08/16 11:47:19;;;;;;;0.88;0.55;;;28.60;88.30;;;;;;4883174;29;20048;-92
2022/08/16 11:49:45;;;;;;;0.32;0.30;;;28.70;89.40;;;;;;4882818;29;20119;-91
2022/08/16 11:52:10;;;;;;;0.52;0.52;;;28.80;83.60;;;;;;4898869;29;20060;-91
2022/08/16 11:54:36;;;;;;;0.32;0.30;;;28.80;86.70;;;;;;4882928;29;20055;-91
2022/08/16 11:57:03;;;;;;;0.43;0.43;;;28.80;89.10;;;;;;4882948;29;20053;-91
2022/08/16 11:59:29;;;;;;;0.50;0.50;;;28.70;87.00;;;;;;4867965;29;20418;-92
2022/08/16 12:01:58;;;;;;;0.50;0.50;;;28.80;87.40;;;;;;4898627;29;20056;-92
2022/08/16 12:04:24;;;;;;;0.28;0.28;;;28.70;82.70;;;;;;4882086;29;20044;-91
2022/08/16 12:06:51;;;;;;;0.57;0.55;;;28.80;86.80;;;;;;4880942;29;20040;-91
2022/08/16 12:09:17;;;;;;;0.70;0.63;;;28.90;87.50;;;;;;4883207;29;20108;-91
2022/08/16 12:11:43;;;;;;;0.30;0.30;;;29.00;87.40;;;;;;4882633;29;20049;-91
2022/08/16 12:14:09;;;;;;;0.50;0.50;;;29.10;87.20;;;;;;4882667;29;20060;-91
2022/08/16 12:16:36;;;;;;;0.45;0.45;;;29.10;86.60;;;;;;4866708;29;20044;-91
2022/08/16 12:19:06;;;;;;;0.50;0.50;;;29.20;86.20;;;;;;4867364;29;20048;-91
2022/08/16 12:21:33;;;;;;;0.45;0.45;;;29.30;86.60;;;;;;4898388;29;20495;-91
2022/08/16 12:23:59;;;;;;;0.55;0.55;;;29.30;84.40;;;;;;4882749;29;20048;-91
2022/08/16 12:26:24;;;;;;;0.40;0.40;;;29.30;85.80;;;;;;4867647;29;20052;-91
2022/08/16 12:28:52;;;;;;;0.40;0.40;;;29.50;85.40;;;;;;4869682;29;20048;-90
2022/08/16 12:31:19;;;;;;;0.40;0.40;;;29.50;85.70;;;;;;4885712;29;20063;-92
2022/08/16 12:33:45;;;;;;;0.50;0.50;;;29.60;85.40;;;;;;4900175;29;20127;-91
2022/08/16 12:36:12;;;;;;;0.40;0.40;;;29.70;85.70;;;;;;4870374;29;20204;-92
2022/08/16 12:38:38;;;;;;;0.38;0.38;;;29.80;85.70;;;;;;4870452;29;20066;-91
2022/08/16 12:41:04;;;;;;;0.47;0.47;;;29.70;82.80;;;;;;4886204;29;20138;-91
2022/08/16 12:43:30;;;;;;;0.60;0.50;;;29.60;83.20;;;;;;4870702;29;20542;-92
2022/08/16 12:45:56;;;;;;;0.50;0.40;;;29.50;80.60;;;;;;4885809;29;20048;-91
2022/08/16 12:51:14;;;;;;;0.73;0.65;;;29.60;83.00;;;;;;4901794;29;20059;-91
2022/08/16 12:53:41;;;;;;;0.50;0.50;;;29.80;83.50;;;;;;4885931;29;20115;-90
2022/08/16 12:56:10;;;;;;;0.20;0.20;;;29.80;82.30;;;;;;4900724;29;20067;-91